sensor_id;sensor_type;location;lat;lon;timestamp;P1;durP1;ratioP1;P2;durP2;ratioP2
68942;SDS011;60852;52.190;4.422;2022-09-20T00:01:12;3.42;;;2.33;;
68942;SDS011;60852;52.190;4.422;2022-09-20T00:03:45;3.97;;;2.66;;
68942;SDS011;60852;52.190;4.422;2022-09-20T00:06:19;3.72;;;2.46;;
68942;SDS011;60852;52.190;4.422;2022-09-20T00:08:47;4.40;;;2.85;;
68942;SDS011;60852;52.190;4.422;2022-09-20T00:11:20;3.58;;;2.31;;
68942;SDS011;60852;52.190;4.422;2022-09-20T00:13:49;3.34;;;2.16;;
68942;SDS011;60852;52.190;4.422;2022-09-20T00:18:49;2.83;;;1.84;;
68942;SDS011;60852;52.190;4.422;2022-09-20T00:21:18;2.78;;;1.84;;
68942;SDS011;60852;52.190;4.422;2022-09-20T00:23:46;3.10;;;2.07;;
68942;SDS011;60852;52.190;4.422;2022-09-20T00:26:12;2.75;;;1.84;;
68942;SDS011;60852;52.190;4.422;2022-09-20T00:28:38;2.79;;;1.90;;
68942;SDS011;60852;52.190;4.422;2022-09-20T00:31:04;2.73;;;1.87;;
68942;SDS011;60852;52.190;4.422;2022-09-20T00:33:30;2.60;;;1.83;;
68942;SDS011;60852;52.190;4.422;2022-09-20T00:36:14;2.38;;;1.68;;
68942;SDS011;60852;52.190;4.422;2022-09-20T00:38:40;2.27;;;1.59;;
68942;SDS011;60852;52.190;4.422;2022-09-20T00:41:06;2.64;;;1.83;;
68942;SDS011;60852;52.190;4.422;2022-09-20T00:43:36;2.43;;;1.70;;
68942;SDS011;60852;52.190;4.422;2022-09-20T00:46:04;2.80;;;1.93;;
68942;SDS011;60852;52.190;4.422;2022-09-20T00:48:44;3.02;;;2.00;;
68942;SDS011;60852;52.190;4.422;2022-09-20T00:51:12;2.71;;;1.83;;
68942;SDS011;60852;52.190;4.422;2022-09-20T00:53:46;2.78;;;1.89;;
68942;SDS011;60852;52.190;4.422;2022-09-20T00:56:24;2.92;;;1.98;;
68942;SDS011;60852;52.190;4.422;2022-09-20T00:59:39;3.24;;;2.20;;
68942;SDS011;60852;52.190;4.422;2022-09-20T01:01:48;2.80;;;1.92;;
68942;SDS011;60852;52.190;4.422;2022-09-20T01:04:20;2.95;;;2.08;;
68942;SDS011;60852;52.190;4.422;2022-09-20T01:06:52;2.62;;;1.85;;
68942;SDS011;60852;52.190;4.422;2022-09-20T01:09:20;2.80;;;1.94;;
68942;SDS011;60852;52.190;4.422;2022-09-20T01:11:46;2.65;;;1.83;;
68942;SDS011;60852;52.190;4.422;2022-09-20T01:14:14;3.12;;;2.16;;
68942;SDS011;60852;52.190;4.422;2022-09-20T01:16:43;3.13;;;2.13;;
68942;SDS011;60852;52.190;4.422;2022-09-20T01:19:26;2.88;;;1.98;;
68942;SDS011;60852;52.190;4.422;2022-09-20T01:22:01;3.14;;;2.21;;
68942;SDS011;60852;52.190;4.422;2022-09-20T01:24:41;3.82;;;2.72;;
68942;SDS011;60852;52.190;4.422;2022-09-20T01:27:38;2.58;;;1.88;;
68942;SDS011;60852;52.190;4.422;2022-09-20T01:30:12;2.76;;;1.99;;
68942;SDS011;60852;52.190;4.422;2022-09-20T01:35:27;3.09;;;2.17;;
68942;SDS011;60852;52.190;4.422;2022-09-20T01:38:14;3.19;;;2.21;;
68942;SDS011;60852;52.190;4.422;2022-09-20T01:40:57;2.42;;;1.67;;
68942;SDS011;60852;52.190;4.422;2022-09-20T01:43:51;2.81;;;1.98;;
68942;SDS011;60852;52.190;4.422;2022-09-20T01:46:29;2.68;;;1.93;;
68942;SDS011;60852;52.190;4.422;2022-09-20T01:49:43;2.74;;;1.97;;
68942;SDS011;60852;52.190;4.422;2022-09-20T01:52:02;2.42;;;1.70;;
68942;SDS011;60852;52.190;4.422;2022-09-20T01:58:08;2.16;;;1.51;;
68942;SDS011;60852;52.190;4.422;2022-09-20T02:01:14;2.75;;;1.92;;
68942;SDS011;60852;52.190;4.422;2022-09-20T02:12:52;3.01;;;2.14;;
68942;SDS011;60852;52.190;4.422;2022-09-20T02:21:10;2.30;;;1.67;;
68942;SDS011;60852;52.190;4.422;2022-09-20T02:24:02;2.56;;;1.89;;
68942;SDS011;60852;52.190;4.422;2022-09-20T02:26:39;2.57;;;1.92;;
68942;SDS011;60852;52.190;4.422;2022-09-20T02:29:38;2.53;;;1.85;;
68942;SDS011;60852;52.190;4.422;2022-09-20T02:35:24;2.32;;;1.75;;
68942;SDS011;60852;52.190;4.422;2022-09-20T02:41:03;2.34;;;1.82;;
68942;SDS011;60852;52.190;4.422;2022-09-20T02:44:16;2.23;;;1.76;;
68942;SDS011;60852;52.190;4.422;2022-09-20T02:50:12;1.98;;;1.68;;
68942;SDS011;60852;52.190;4.422;2022-09-20T02:56:02;2.18;;;1.87;;
68942;SDS011;60852;52.190;4.422;2022-09-20T02:59:08;1.88;;;1.64;;
68942;SDS011;60852;52.190;4.422;2022-09-20T03:04:41;1.93;;;1.67;;
68942;SDS011;60852;52.190;4.422;2022-09-20T03:07:45;2.12;;;1.83;;
68942;SDS011;60852;52.190;4.422;2022-09-20T03:15:54;1.93;;;1.73;;
68942;SDS011;60852;52.190;4.422;2022-09-20T03:18:56;1.79;;;1.65;;
68942;SDS011;60852;52.190;4.422;2022-09-20T03:22:12;1.86;;;1.74;;
68942;SDS011;60852;52.190;4.422;2022-09-20T03:33:25;2.11;;;1.89;;
68942;SDS011;60852;52.190;4.422;2022-09-20T03:41:52;2.26;;;2.06;;
68942;SDS011;60852;52.190;4.422;2022-09-20T03:50:59;2.12;;;2.02;;
68942;SDS011;60852;52.190;4.422;2022-09-20T04:04:51;2.10;;;1.97;;
68942;SDS011;60852;52.190;4.422;2022-09-20T04:21:18;2.04;;;1.93;;
68942;SDS011;60852;52.190;4.422;2022-09-20T04:24:00;2.08;;;1.94;;
68942;SDS011;60852;52.190;4.422;2022-09-20T04:26:36;2.23;;;2.07;;
68942;SDS011;60852;52.190;4.422;2022-09-20T04:29:32;2.17;;;2.00;;
68942;SDS011;60852;52.190;4.422;2022-09-20T04:34:52;2.07;;;1.87;;
68942;SDS011;60852;52.190;4.422;2022-09-20T04:37:46;1.78;;;1.65;;
68942;SDS011;60852;52.190;4.422;2022-09-20T04:54:39;1.82;;;1.69;;
68942;SDS011;60852;52.190;4.422;2022-09-20T05:00:11;2.18;;;1.94;;
68942;SDS011;60852;52.190;4.422;2022-09-20T05:08:39;2.20;;;1.67;;
68942;SDS011;60852;52.190;4.422;2022-09-20T05:14:24;2.45;;;1.78;;
68942;SDS011;60852;52.190;4.422;2022-09-20T05:25:35;2.74;;;1.89;;
68942;SDS011;60852;52.190;4.422;2022-09-20T05:36:52;2.38;;;1.69;;
68942;SDS011;60852;52.190;4.422;2022-09-20T05:39:28;2.92;;;2.04;;
68942;SDS011;60852;52.190;4.422;2022-09-20T05:42:14;2.43;;;1.68;;
68942;SDS011;60852;52.190;4.422;2022-09-20T05:47:35;2.85;;;1.91;;
68942;SDS011;60852;52.190;4.422;2022-09-20T05:53:08;3.00;;;2.05;;
68942;SDS011;60852;52.190;4.422;2022-09-20T05:58:34;2.71;;;1.85;;
68942;SDS011;60852;52.190;4.422;2022-09-20T06:01:10;2.92;;;2.01;;
68942;SDS011;60852;52.190;4.422;2022-09-20T06:03:51;2.59;;;1.82;;
68942;SDS011;60852;52.190;4.422;2022-09-20T06:09:27;3.15;;;2.14;;
68942;SDS011;60852;52.190;4.422;2022-09-20T06:14:44;4.18;;;2.83;;
68942;SDS011;60852;52.190;4.422;2022-09-20T06:17:36;3.32;;;2.22;;
68942;SDS011;60852;52.190;4.422;2022-09-20T06:22:54;3.42;;;2.35;;
68942;SDS011;60852;52.190;4.422;2022-09-20T06:25:25;3.08;;;2.14;;
68942;SDS011;60852;52.190;4.422;2022-09-20T06:28:05;2.35;;;1.64;;
68942;SDS011;60852;52.190;4.422;2022-09-20T06:30:46;2.38;;;1.66;;
68942;SDS011;60852;52.190;4.422;2022-09-20T06:35:46;2.51;;;1.80;;
68942;SDS011;60852;52.190;4.422;2022-09-20T06:41:47;2.53;;;1.85;;
68942;SDS011;60852;52.190;4.422;2022-09-20T06:44:13;2.21;;;1.65;;
68942;SDS011;60852;52.190;4.422;2022-09-20T06:46:39;2.11;;;1.57;;
68942;SDS011;60852;52.190;4.422;2022-09-20T06:49:05;1.94;;;1.44;;
68942;SDS011;60852;52.190;4.422;2022-09-20T06:51:34;2.16;;;1.56;;
68942;SDS011;60852;52.190;4.422;2022-09-20T06:54:01;1.96;;;1.41;;
68942;SDS011;60852;52.190;4.422;2022-09-20T06:56:31;2.14;;;1.53;;
68942;SDS011;60852;52.190;4.422;2022-09-20T06:59:00;2.00;;;1.43;;
68942;SDS011;60852;52.190;4.422;2022-09-20T07:01:25;2.38;;;1.68;;
68942;SDS011;60852;52.190;4.422;2022-09-20T07:03:51;1.85;;;1.31;;
68942;SDS011;60852;52.190;4.422;2022-09-20T07:06:16;2.04;;;1.45;;
68942;SDS011;60852;52.190;4.422;2022-09-20T07:08:44;2.34;;;1.64;;
68942;SDS011;60852;52.190;4.422;2022-09-20T07:11:11;2.45;;;1.69;;
68942;SDS011;60852;52.190;4.422;2022-09-20T07:13:41;1.87;;;1.29;;
68942;SDS011;60852;52.190;4.422;2022-09-20T07:16:07;1.98;;;1.37;;
68942;SDS011;60852;52.190;4.422;2022-09-20T07:18:38;2.03;;;1.41;;
68942;SDS011;60852;52.190;4.422;2022-09-20T07:21:05;1.97;;;1.36;;
68942;SDS011;60852;52.190;4.422;2022-09-20T07:23:33;2.37;;;1.61;;
68942;SDS011;60852;52.190;4.422;2022-09-20T07:25:59;2.51;;;1.67;;
68942;SDS011;60852;52.190;4.422;2022-09-20T07:28:28;2.47;;;1.63;;
68942;SDS011;60852;52.190;4.422;2022-09-20T07:30:55;2.58;;;1.71;;
68942;SDS011;60852;52.190;4.422;2022-09-20T07:33:21;2.53;;;1.66;;
68942;SDS011;60852;52.190;4.422;2022-09-20T07:35:49;2.59;;;1.70;;
68942;SDS011;60852;52.190;4.422;2022-09-20T07:38:17;2.31;;;1.51;;
68942;SDS011;60852;52.190;4.422;2022-09-20T07:40:43;2.44;;;1.63;;
68942;SDS011;60852;52.190;4.422;2022-09-20T07:43:10;2.92;;;1.98;;
68942;SDS011;60852;52.190;4.422;2022-09-20T07:45:37;3.26;;;2.28;;
68942;SDS011;60852;52.190;4.422;2022-09-20T07:48:06;2.41;;;1.74;;
68942;SDS011;60852;52.190;4.422;2022-09-20T07:50:34;2.56;;;1.86;;
68942;SDS011;60852;52.190;4.422;2022-09-20T07:53:00;2.52;;;1.86;;
68942;SDS011;60852;52.190;4.422;2022-09-20T07:55:25;2.34;;;1.74;;
68942;SDS011;60852;52.190;4.422;2022-09-20T07:57:51;2.72;;;2.06;;
68942;SDS011;60852;52.190;4.422;2022-09-20T08:00:18;2.62;;;2.00;;
68942;SDS011;60852;52.190;4.422;2022-09-20T08:02:44;2.47;;;1.87;;
68942;SDS011;60852;52.190;4.422;2022-09-20T08:05:10;2.42;;;1.79;;
68942;SDS011;60852;52.190;4.422;2022-09-20T08:07:36;2.59;;;1.91;;
68942;SDS011;60852;52.190;4.422;2022-09-20T08:10:03;2.83;;;2.11;;
68942;SDS011;60852;52.190;4.422;2022-09-20T08:12:29;2.53;;;1.89;;
68942;SDS011;60852;52.190;4.422;2022-09-20T08:14:57;2.65;;;1.94;;
68942;SDS011;60852;52.190;4.422;2022-09-20T08:17:23;2.91;;;2.14;;
68942;SDS011;60852;52.190;4.422;2022-09-20T08:19:48;3.17;;;2.33;;
68942;SDS011;60852;52.190;4.422;2022-09-20T08:22:16;2.39;;;1.76;;
68942;SDS011;60852;52.190;4.422;2022-09-20T08:24:42;2.26;;;1.67;;
68942;SDS011;60852;52.190;4.422;2022-09-20T08:27:08;2.86;;;2.13;;
68942;SDS011;60852;52.190;4.422;2022-09-20T08:29:33;2.72;;;1.98;;
68942;SDS011;60852;52.190;4.422;2022-09-20T08:31:59;2.82;;;2.07;;
68942;SDS011;60852;52.190;4.422;2022-09-20T08:34:26;3.10;;;2.23;;
68942;SDS011;60852;52.190;4.422;2022-09-20T08:36:51;2.98;;;2.15;;
68942;SDS011;60852;52.190;4.422;2022-09-20T08:39:21;2.66;;;1.95;;
68942;SDS011;60852;52.190;4.422;2022-09-20T08:41:51;2.50;;;1.86;;
68942;SDS011;60852;52.190;4.422;2022-09-20T08:47:42;2.33;;;1.77;;
68942;SDS011;60852;52.190;4.422;2022-09-20T08:50:25;2.84;;;2.12;;
68942;SDS011;60852;52.190;4.422;2022-09-20T08:52:52;2.85;;;2.13;;
68942;SDS011;60852;52.190;4.422;2022-09-20T08:55:22;2.58;;;1.90;;
68942;SDS011;60852;52.190;4.422;2022-09-20T08:57:53;2.80;;;2.05;;
68942;SDS011;60852;52.190;4.422;2022-09-20T09:00:24;3.39;;;2.46;;
68942;SDS011;60852;52.190;4.422;2022-09-20T09:02:56;3.21;;;2.29;;
68942;SDS011;60852;52.190;4.422;2022-09-20T09:05:28;3.06;;;2.16;;
68942;SDS011;60852;52.190;4.422;2022-09-20T09:07:57;2.98;;;2.10;;
68942;SDS011;60852;52.190;4.422;2022-09-20T09:10:29;3.13;;;2.20;;
68942;SDS011;60852;52.190;4.422;2022-09-20T09:13:00;2.81;;;1.96;;
68942;SDS011;60852;52.190;4.422;2022-09-20T09:15:29;2.80;;;1.96;;
68942;SDS011;60852;52.190;4.422;2022-09-20T09:17:59;2.50;;;1.79;;
68942;SDS011;60852;52.190;4.422;2022-09-20T09:20:25;2.77;;;1.99;;
68942;SDS011;60852;52.190;4.422;2022-09-20T09:23:06;2.44;;;1.78;;
68942;SDS011;60852;52.190;4.422;2022-09-20T09:25:39;2.42;;;1.77;;
68942;SDS011;60852;52.190;4.422;2022-09-20T09:33:16;2.24;;;1.63;;
68942;SDS011;60852;52.190;4.422;2022-09-20T09:38:24;2.10;;;1.51;;
68942;SDS011;60852;52.190;4.422;2022-09-20T09:40:59;2.47;;;1.78;;
68942;SDS011;60852;52.190;4.422;2022-09-20T09:43:27;2.28;;;1.69;;
68942;SDS011;60852;52.190;4.422;2022-09-20T09:45:56;2.66;;;1.98;;
68942;SDS011;60852;52.190;4.422;2022-09-20T09:48:42;2.85;;;2.11;;
68942;SDS011;60852;52.190;4.422;2022-09-20T09:51:17;3.03;;;2.30;;
68942;SDS011;60852;52.190;4.422;2022-09-20T09:53:47;2.51;;;1.92;;
68942;SDS011;60852;52.190;4.422;2022-09-20T09:56:22;2.51;;;1.93;;
68942;SDS011;60852;52.190;4.422;2022-09-20T10:05:21;2.83;;;2.16;;
68942;SDS011;60852;52.190;4.422;2022-09-20T10:16:25;2.52;;;1.94;;
68942;SDS011;60852;52.190;4.422;2022-09-20T10:24:38;2.68;;;2.08;;
68942;SDS011;60852;52.190;4.422;2022-09-20T10:30:30;2.39;;;1.86;;
68942;SDS011;60852;52.190;4.422;2022-09-20T10:33:22;2.01;;;1.59;;
68942;SDS011;60852;52.190;4.422;2022-09-20T10:36:14;1.84;;;1.48;;
68942;SDS011;60852;52.190;4.422;2022-09-20T10:38:52;1.99;;;1.61;;
68942;SDS011;60852;52.190;4.422;2022-09-20T10:47:16;2.70;;;2.02;;
68942;SDS011;60852;52.190;4.422;2022-09-20T10:55:54;2.43;;;1.84;;
68942;SDS011;60852;52.190;4.422;2022-09-20T11:09:43;2.40;;;1.71;;
68942;SDS011;60852;52.190;4.422;2022-09-20T11:12:28;2.20;;;1.57;;
68942;SDS011;60852;52.190;4.422;2022-09-20T11:17:42;2.76;;;1.99;;
68942;SDS011;60852;52.190;4.422;2022-09-20T11:20:27;2.55;;;1.77;;
68942;SDS011;60852;52.190;4.422;2022-09-20T11:23:18;2.23;;;1.55;;
68942;SDS011;60852;52.190;4.422;2022-09-20T11:25:51;2.36;;;1.63;;
68942;SDS011;60852;52.190;4.422;2022-09-20T11:28:29;2.84;;;1.95;;
68942;SDS011;60852;52.190;4.422;2022-09-20T11:33:52;2.28;;;1.52;;
68942;SDS011;60852;52.190;4.422;2022-09-20T11:36:34;2.57;;;1.75;;
68942;SDS011;60852;52.190;4.422;2022-09-20T11:39:04;2.00;;;1.38;;
68942;SDS011;60852;52.190;4.422;2022-09-20T11:41:41;2.24;;;1.58;;
68942;SDS011;60852;52.190;4.422;2022-09-20T11:44:10;2.15;;;1.54;;
68942;SDS011;60852;52.190;4.422;2022-09-20T11:57:20;2.56;;;1.81;;
68942;SDS011;60852;52.190;4.422;2022-09-20T11:59:51;2.74;;;1.96;;
68942;SDS011;60852;52.190;4.422;2022-09-20T12:04:49;2.40;;;1.74;;
68942;SDS011;60852;52.190;4.422;2022-09-20T12:10:21;1.99;;;1.42;;
68942;SDS011;60852;52.190;4.422;2022-09-20T12:12:54;2.39;;;1.70;;
68942;SDS011;60852;52.190;4.422;2022-09-20T12:26:09;2.14;;;1.53;;
68942;SDS011;60852;52.190;4.422;2022-09-20T12:28:44;2.19;;;1.53;;
68942;SDS011;60852;52.190;4.422;2022-09-20T12:33:56;2.56;;;1.79;;
68942;SDS011;60852;52.190;4.422;2022-09-20T12:36:32;2.35;;;1.64;;
68942;SDS011;60852;52.190;4.422;2022-09-20T12:41:52;1.78;;;1.25;;
68942;SDS011;60852;52.190;4.422;2022-09-20T12:47:01;1.87;;;1.32;;
68942;SDS011;60852;52.190;4.422;2022-09-20T12:49:33;2.23;;;1.59;;
68942;SDS011;60852;52.190;4.422;2022-09-20T12:52:30;1.87;;;1.34;;
68942;SDS011;60852;52.190;4.422;2022-09-20T13:00:45;1.84;;;1.35;;
68942;SDS011;60852;52.190;4.422;2022-09-20T13:09:13;1.83;;;1.32;;
68942;SDS011;60852;52.190;4.422;2022-09-20T13:11:29;1.39;;;1.00;;
68942;SDS011;60852;52.190;4.422;2022-09-20T13:14:24;2.11;;;1.51;;
68942;SDS011;60852;52.190;4.422;2022-09-20T13:16:54;2.15;;;1.54;;
68942;SDS011;60852;52.190;4.422;2022-09-20T13:19:44;2.44;;;1.75;;
68942;SDS011;60852;52.190;4.422;2022-09-20T13:24:58;1.59;;;1.19;;
68942;SDS011;60852;52.190;4.422;2022-09-20T13:27:34;1.52;;;1.14;;
68942;SDS011;60852;52.190;4.422;2022-09-20T13:32:41;1.60;;;1.22;;
68942;SDS011;60852;52.190;4.422;2022-09-20T13:35:17;1.88;;;1.45;;
68942;SDS011;60852;52.190;4.422;2022-09-20T13:40:25;1.83;;;1.39;;
68942;SDS011;60852;52.190;4.422;2022-09-20T13:42:59;1.76;;;1.37;;
68942;SDS011;60852;52.190;4.422;2022-09-20T13:45:31;1.54;;;1.17;;
68942;SDS011;60852;52.190;4.422;2022-09-20T13:47:58;1.38;;;1.03;;
68942;SDS011;60852;52.190;4.422;2022-09-20T13:50:29;1.85;;;1.39;;
68942;SDS011;60852;52.190;4.422;2022-09-20T13:52:59;1.81;;;1.38;;
68942;SDS011;60852;52.190;4.422;2022-09-20T13:58:05;2.29;;;1.82;;
68942;SDS011;60852;52.190;4.422;2022-09-20T14:00:36;2.77;;;2.30;;
68942;SDS011;60852;52.190;4.422;2022-09-20T14:03:11;1.29;;;1.09;;
68942;SDS011;60852;52.190;4.422;2022-09-20T14:05:45;1.18;;;0.99;;
68942;SDS011;60852;52.190;4.422;2022-09-20T14:08:16;1.36;;;1.11;;
68942;SDS011;60852;52.190;4.422;2022-09-20T14:13:32;1.54;;;1.24;;
68942;SDS011;60852;52.190;4.422;2022-09-20T14:16:04;1.68;;;1.34;;
68942;SDS011;60852;52.190;4.422;2022-09-20T14:18:32;1.50;;;1.19;;
68942;SDS011;60852;52.190;4.422;2022-09-20T14:20:59;1.34;;;1.07;;
68942;SDS011;60852;52.190;4.422;2022-09-20T14:23:27;1.60;;;1.26;;
68942;SDS011;60852;52.190;4.422;2022-09-20T14:28:41;1.80;;;1.33;;
68942;SDS011;60852;52.190;4.422;2022-09-20T14:31:08;1.58;;;1.13;;
68942;SDS011;60852;52.190;4.422;2022-09-20T14:33:47;1.86;;;1.31;;
68942;SDS011;60852;52.190;4.422;2022-09-20T14:36:20;2.20;;;1.54;;
68942;SDS011;60852;52.190;4.422;2022-09-20T14:38:48;2.28;;;1.58;;
68942;SDS011;60852;52.190;4.422;2022-09-20T14:41:25;2.77;;;1.93;;
68942;SDS011;60852;52.190;4.422;2022-09-20T14:43:57;2.32;;;1.67;;
68942;SDS011;60852;52.190;4.422;2022-09-20T14:46:34;1.51;;;1.09;;
68942;SDS011;60852;52.190;4.422;2022-09-20T14:51:50;1.75;;;1.25;;
68942;SDS011;60852;52.190;4.422;2022-09-20T14:54:24;1.83;;;1.28;;
68942;SDS011;60852;52.190;4.422;2022-09-20T14:56:54;2.18;;;1.54;;
68942;SDS011;60852;52.190;4.422;2022-09-20T14:59:25;2.50;;;1.83;;
68942;SDS011;60852;52.190;4.422;2022-09-20T15:01:56;2.05;;;1.55;;
68942;SDS011;60852;52.190;4.422;2022-09-20T15:04:25;1.54;;;1.17;;
68942;SDS011;60852;52.190;4.422;2022-09-20T15:06:55;1.86;;;1.42;;
68942;SDS011;60852;52.190;4.422;2022-09-20T15:09:25;1.46;;;1.11;;
68942;SDS011;60852;52.190;4.422;2022-09-20T15:12:01;1.77;;;1.37;;
68942;SDS011;60852;52.190;4.422;2022-09-20T15:14:28;1.31;;;1.02;;
68942;SDS011;60852;52.190;4.422;2022-09-20T15:16:54;1.90;;;1.49;;
68942;SDS011;60852;52.190;4.422;2022-09-20T15:19:22;3.52;;;2.76;;
68942;SDS011;60852;52.190;4.422;2022-09-20T15:21:47;3.48;;;2.88;;
68942;SDS011;60852;52.190;4.422;2022-09-20T15:24:13;1.17;;;0.95;;
68942;SDS011;60852;52.190;4.422;2022-09-20T15:26:41;1.69;;;1.33;;
68942;SDS011;60852;52.190;4.422;2022-09-20T15:29:11;2.67;;;2.06;;
68942;SDS011;60852;52.190;4.422;2022-09-20T15:31:40;1.62;;;1.22;;
68942;SDS011;60852;52.190;4.422;2022-09-20T15:34:05;2.00;;;1.49;;
68942;SDS011;60852;52.190;4.422;2022-09-20T15:36:31;2.75;;;2.09;;
68942;SDS011;60852;52.190;4.422;2022-09-20T15:38:57;1.94;;;1.46;;
68942;SDS011;60852;52.190;4.422;2022-09-20T15:41:23;1.60;;;1.19;;
68942;SDS011;60852;52.190;4.422;2022-09-20T15:43:48;1.40;;;1.03;;
68942;SDS011;60852;52.190;4.422;2022-09-20T15:46:21;2.99;;;2.20;;
68942;SDS011;60852;52.190;4.422;2022-09-20T15:48:48;2.41;;;1.85;;
68942;SDS011;60852;52.190;4.422;2022-09-20T15:51:14;3.35;;;2.59;;
68942;SDS011;60852;52.190;4.422;2022-09-20T15:53:41;2.15;;;1.73;;
68942;SDS011;60852;52.190;4.422;2022-09-20T15:56:16;1.41;;;1.13;;
68942;SDS011;60852;52.190;4.422;2022-09-20T15:58:50;1.62;;;1.30;;
68942;SDS011;60852;52.190;4.422;2022-09-20T16:01:23;1.08;;;0.84;;
68942;SDS011;60852;52.190;4.422;2022-09-20T16:03:52;1.24;;;0.94;;
68942;SDS011;60852;52.190;4.422;2022-09-20T16:06:20;1.86;;;1.40;;
68942;SDS011;60852;52.190;4.422;2022-09-20T16:08:46;1.73;;;1.26;;
68942;SDS011;60852;52.190;4.422;2022-09-20T16:11:12;1.33;;;0.96;;
68942;SDS011;60852;52.190;4.422;2022-09-20T16:13:40;1.56;;;1.13;;
68942;SDS011;60852;52.190;4.422;2022-09-20T16:16:06;2.32;;;1.69;;
68942;SDS011;60852;52.190;4.422;2022-09-20T16:18:37;1.53;;;1.13;;
68942;SDS011;60852;52.190;4.422;2022-09-20T16:21:21;1.61;;;1.20;;
68942;SDS011;60852;52.190;4.422;2022-09-20T16:23:49;1.68;;;1.28;;
68942;SDS011;60852;52.190;4.422;2022-09-20T16:26:17;1.76;;;1.35;;
68942;SDS011;60852;52.190;4.422;2022-09-20T16:28:44;1.62;;;1.24;;
68942;SDS011;60852;52.190;4.422;2022-09-20T16:34:18;1.48;;;1.10;;
68942;SDS011;60852;52.190;4.422;2022-09-20T16:36:54;1.70;;;1.24;;
68942;SDS011;60852;52.190;4.422;2022-09-20T16:39:23;1.97;;;1.45;;
68942;SDS011;60852;52.190;4.422;2022-09-20T16:41:51;2.10;;;1.55;;
68942;SDS011;60852;52.190;4.422;2022-09-20T16:44:27;1.98;;;1.47;;
68942;SDS011;60852;52.190;4.422;2022-09-20T16:46:53;1.72;;;1.28;;
68942;SDS011;60852;52.190;4.422;2022-09-20T16:49:19;1.51;;;1.12;;
68942;SDS011;60852;52.190;4.422;2022-09-20T16:51:44;2.32;;;1.74;;
68942;SDS011;60852;52.190;4.422;2022-09-20T16:54:12;2.47;;;1.88;;
68942;SDS011;60852;52.190;4.422;2022-09-20T16:56:42;1.91;;;1.48;;
68942;SDS011;60852;52.190;4.422;2022-09-20T16:59:09;1.62;;;1.25;;
68942;SDS011;60852;52.190;4.422;2022-09-20T17:01:37;2.10;;;1.60;;
68942;SDS011;60852;52.190;4.422;2022-09-20T17:04:04;2.00;;;1.49;;
68942;SDS011;60852;52.190;4.422;2022-09-20T17:06:31;2.61;;;1.96;;
68942;SDS011;60852;52.190;4.422;2022-09-20T17:08:58;1.98;;;1.50;;
68942;SDS011;60852;52.190;4.422;2022-09-20T17:11:26;2.68;;;2.00;;
68942;SDS011;60852;52.190;4.422;2022-09-20T17:13:54;2.07;;;1.55;;
68942;SDS011;60852;52.190;4.422;2022-09-20T17:16:22;2.18;;;1.63;;
68942;SDS011;60852;52.190;4.422;2022-09-20T17:18:57;2.29;;;1.70;;
68942;SDS011;60852;52.190;4.422;2022-09-20T17:21:25;2.18;;;1.61;;
68942;SDS011;60852;52.190;4.422;2022-09-20T17:23:54;2.04;;;1.54;;
68942;SDS011;60852;52.190;4.422;2022-09-20T17:26:23;2.33;;;1.74;;
68942;SDS011;60852;52.190;4.422;2022-09-20T17:28:49;2.53;;;1.93;;
68942;SDS011;60852;52.190;4.422;2022-09-20T17:31:21;2.35;;;1.86;;
68942;SDS011;60852;52.190;4.422;2022-09-20T17:33:49;2.10;;;1.63;;
68942;SDS011;60852;52.190;4.422;2022-09-20T17:36:16;2.23;;;1.71;;
68942;SDS011;60852;52.190;4.422;2022-09-20T17:38:46;2.18;;;1.68;;
68942;SDS011;60852;52.190;4.422;2022-09-20T17:41:17;2.18;;;1.66;;
68942;SDS011;60852;52.190;4.422;2022-09-20T17:43:44;2.24;;;1.71;;
68942;SDS011;60852;52.190;4.422;2022-09-20T17:48:36;2.92;;;2.23;;
68942;SDS011;60852;52.190;4.422;2022-09-20T17:51:03;2.58;;;2.02;;
68942;SDS011;60852;52.190;4.422;2022-09-20T17:53:30;2.52;;;2.00;;
68942;SDS011;60852;52.190;4.422;2022-09-20T17:55:57;2.36;;;1.87;;
68942;SDS011;60852;52.190;4.422;2022-09-20T17:58:24;2.51;;;1.97;;
68942;SDS011;60852;52.190;4.422;2022-09-20T18:00:50;2.48;;;1.91;;
68942;SDS011;60852;52.190;4.422;2022-09-20T18:03:16;2.37;;;1.81;;
68942;SDS011;60852;52.190;4.422;2022-09-20T18:05:41;2.51;;;1.94;;
68942;SDS011;60852;52.190;4.422;2022-09-20T18:08:07;2.53;;;1.99;;
68942;SDS011;60852;52.190;4.422;2022-09-20T18:10:33;2.77;;;2.27;;
68942;SDS011;60852;52.190;4.422;2022-09-20T18:12:59;2.49;;;2.07;;
68942;SDS011;60852;52.190;4.422;2022-09-20T18:15:25;2.17;;;1.80;;
68942;SDS011;60852;52.190;4.422;2022-09-20T18:17:52;2.32;;;1.92;;
68942;SDS011;60852;52.190;4.422;2022-09-20T18:20:18;1.94;;;1.58;;
68942;SDS011;60852;52.190;4.422;2022-09-20T18:22:46;2.11;;;1.64;;
68942;SDS011;60852;52.190;4.422;2022-09-20T18:25:12;2.19;;;1.72;;
68942;SDS011;60852;52.190;4.422;2022-09-20T18:27:38;2.38;;;1.92;;
68942;SDS011;60852;52.190;4.422;2022-09-20T18:30:03;2.38;;;1.94;;
68942;SDS011;60852;52.190;4.422;2022-09-20T18:32:30;2.85;;;2.32;;
68942;SDS011;60852;52.190;4.422;2022-09-20T18:34:55;3.14;;;2.68;;
68942;SDS011;60852;52.190;4.422;2022-09-20T18:37:22;3.38;;;3.07;;
68942;SDS011;60852;52.190;4.422;2022-09-20T18:39:47;3.19;;;3.00;;
68942;SDS011;60852;52.190;4.422;2022-09-20T18:42:13;2.54;;;2.41;;
68942;SDS011;60852;52.190;4.422;2022-09-20T18:44:39;2.84;;;2.69;;
68942;SDS011;60852;52.190;4.422;2022-09-20T18:47:07;2.47;;;2.35;;
68942;SDS011;60852;52.190;4.422;2022-09-20T18:49:32;2.18;;;2.08;;
68942;SDS011;60852;52.190;4.422;2022-09-20T18:51:58;2.12;;;2.01;;
68942;SDS011;60852;52.190;4.422;2022-09-20T18:54:24;2.86;;;2.69;;
68942;SDS011;60852;52.190;4.422;2022-09-20T18:56:49;3.23;;;3.06;;
68942;SDS011;60852;52.190;4.422;2022-09-20T19:07:02;5.86;;;5.38;;
68942;SDS011;60852;52.190;4.422;2022-09-20T19:15:35;2.22;;;2.12;;
68942;SDS011;60852;52.190;4.422;2022-09-20T19:20:23;3.52;;;3.34;;
68942;SDS011;60852;52.190;4.422;2022-09-20T19:23:38;1.98;;;1.82;;
68942;SDS011;60852;52.190;4.422;2022-09-20T19:26:22;1.61;;;1.38;;
68942;SDS011;60852;52.190;4.422;2022-09-20T19:28:53;1.99;;;1.65;;
68942;SDS011;60852;52.190;4.422;2022-09-20T19:31:21;2.11;;;1.73;;
68942;SDS011;60852;52.190;4.422;2022-09-20T19:33:48;2.34;;;1.90;;
68942;SDS011;60852;52.190;4.422;2022-09-20T19:36:14;2.19;;;1.77;;
68942;SDS011;60852;52.190;4.422;2022-09-20T19:38:46;3.33;;;2.81;;
68942;SDS011;60852;52.190;4.422;2022-09-20T19:47:20;1.94;;;1.65;;
68942;SDS011;60852;52.190;4.422;2022-09-20T19:52:59;1.69;;;1.47;;
68942;SDS011;60852;52.190;4.422;2022-09-20T19:55:32;1.85;;;1.62;;
68942;SDS011;60852;52.190;4.422;2022-09-20T19:58:02;1.71;;;1.50;;
68942;SDS011;60852;52.190;4.422;2022-09-20T20:00:28;1.84;;;1.59;;
68942;SDS011;60852;52.190;4.422;2022-09-20T20:02:55;1.97;;;1.69;;
68942;SDS011;60852;52.190;4.422;2022-09-20T20:05:21;1.83;;;1.59;;
68942;SDS011;60852;52.190;4.422;2022-09-20T20:10:29;2.05;;;1.71;;
68942;SDS011;60852;52.190;4.422;2022-09-20T20:16:14;2.10;;;1.70;;
68942;SDS011;60852;52.190;4.422;2022-09-20T20:21:40;1.94;;;1.59;;
68942;SDS011;60852;52.190;4.422;2022-09-20T20:24:21;2.07;;;1.69;;
68942;SDS011;60852;52.190;4.422;2022-09-20T20:26:58;1.88;;;1.55;;
68942;SDS011;60852;52.190;4.422;2022-09-20T20:29:23;1.90;;;1.54;;
68942;SDS011;60852;52.190;4.422;2022-09-20T20:31:49;1.93;;;1.56;;
68942;SDS011;60852;52.190;4.422;2022-09-20T20:34:14;1.80;;;1.46;;
68942;SDS011;60852;52.190;4.422;2022-09-20T20:36:41;1.98;;;1.59;;
68942;SDS011;60852;52.190;4.422;2022-09-20T20:39:08;1.98;;;1.58;;
68942;SDS011;60852;52.190;4.422;2022-09-20T20:41:34;2.10;;;1.65;;
68942;SDS011;60852;52.190;4.422;2022-09-20T20:43:59;2.03;;;1.60;;
68942;SDS011;60852;52.190;4.422;2022-09-20T20:46:25;1.83;;;1.48;;